createdAt,value
2023-03-02T00:00:47.923Z,16.35
2023-03-02T00:03:18.284Z,16.02
2023-03-02T00:05:49.103Z,16.08
2023-03-02T00:08:18.093Z,19.35
2023-03-02T00:10:44.974Z,17.88
2023-03-02T00:13:13.918Z,21.38
2023-03-02T00:15:41.423Z,21.33
2023-03-02T00:18:08.079Z,19.70
2023-03-02T00:20:36.001Z,17.90
2023-03-02T00:23:02.648Z,18.02
2023-03-02T00:25:29.408Z,18.15
2023-03-02T00:27:56.272Z,20.40
2023-03-02T00:30:22.882Z,19.10
2023-03-02T00:32:49.660Z,19.92
2023-03-02T00:35:16.460Z,21.75
2023-03-02T00:37:43.400Z,18.63
2023-03-02T00:40:11.284Z,19.88
2023-03-02T00:42:38.198Z,17.40
2023-03-02T00:45:06.147Z,20.55
2023-03-02T00:47:36.813Z,19.63
2023-03-02T00:50:05.373Z,19.20
2023-03-02T00:52:33.320Z,19.75
2023-03-02T00:54:59.937Z,18.52
2023-03-02T00:57:26.586Z,19.08
2023-03-02T00:59:53.229Z,18.60
2023-03-02T01:02:21.743Z,20.70
2023-03-02T01:04:49.371Z,20.48
2023-03-02T01:07:18.554Z,18.70
2023-03-02T01:09:45.542Z,19.45
2023-03-02T01:12:12.881Z,17.98
2023-03-02T01:14:43.196Z,19.60
2023-03-02T01:17:10.550Z,20.35
2023-03-02T01:19:37.943Z,19.55
2023-03-02T01:22:04.932Z,19.02
2023-03-02T01:24:32.359Z,18.88
2023-03-02T01:26:58.980Z,18.92
2023-03-02T01:29:26.383Z,18.58
2023-03-02T01:31:53.185Z,17.05
2023-03-02T01:34:19.922Z,16.88
2023-03-02T01:36:46.573Z,19.88
2023-03-02T01:39:16.741Z,20.30
2023-03-02T01:41:44.757Z,19.40
2023-03-02T01:44:36.057Z,20.45
2023-03-02T01:47:05.270Z,19.80
2023-03-02T01:49:37.386Z,21.60
2023-03-02T01:52:04.306Z,18.67
2023-03-02T01:54:31.055Z,16.85
2023-03-02T01:57:02.383Z,20.40
2023-03-02T01:59:31.520Z,17.92
2023-03-02T02:02:01.736Z,18.77
2023-03-02T02:04:30.856Z,18.02
2023-03-02T02:07:02.791Z,17.05
2023-03-02T02:09:38.917Z,16.63
2023-03-02T02:12:06.046Z,18.25
2023-03-02T02:14:33.048Z,17.85
2023-03-02T02:16:59.792Z,19.58
2023-03-02T02:19:50.995Z,21.48
2023-03-02T02:22:30.487Z,18.88
2023-03-02T02:25:02.245Z,18.08
2023-03-02T02:27:33.776Z,18.73
2023-03-02T02:30:04.689Z,17.77
2023-03-02T02:32:36.535Z,17.92
2023-03-02T02:35:07.369Z,20.70
2023-03-02T02:37:39.949Z,21.38
2023-03-02T02:40:12.654Z,18.70
2023-03-02T02:42:44.423Z,22.70
2023-03-02T02:45:26.151Z,18.67
2023-03-02T02:47:53.840Z,20.80
2023-03-02T02:50:28.024Z,18.25
2023-03-02T02:53:18.123Z,18.13
2023-03-02T02:55:48.042Z,16.80
2023-03-02T02:58:40.136Z,15.80
2023-03-02T03:01:07.059Z,18.50
2023-03-02T03:03:39.362Z,17.77
2023-03-02T03:06:13.626Z,20.35
2023-03-02T03:08:46.353Z,18.23
2023-03-02T03:11:15.972Z,17.17
2023-03-02T03:13:44.453Z,16.70
2023-03-02T03:16:14.852Z,17.48
2023-03-02T03:18:47.172Z,17.80
2023-03-02T03:21:13.820Z,19.15
2023-03-02T03:23:40.427Z,19.23
2023-03-02T03:26:07.170Z,19.25
2023-03-02T03:28:33.989Z,18.23
2023-03-02T03:31:00.710Z,18.45
2023-03-02T03:33:27.423Z,17.38
2023-03-02T03:35:54.197Z,19.50
2023-03-02T03:38:20.848Z,16.95
2023-03-02T03:40:47.471Z,18.02
2023-03-02T03:43:15.263Z,17.48
2023-03-02T03:45:41.888Z,18.00
2023-03-02T03:48:08.655Z,17.48
2023-03-02T03:50:35.603Z,17.20
2023-03-02T03:53:03.910Z,16.98
2023-03-02T03:55:31.225Z,18.70
2023-03-02T03:57:57.857Z,17.77
2023-03-02T04:00:24.601Z,18.63
2023-03-02T04:02:51.336Z,19.38
2023-03-02T04:05:18.092Z,20.15
2023-03-02T04:07:44.762Z,17.90
2023-03-02T04:10:12.422Z,20.90
2023-03-02T04:12:41.400Z,18.33
2023-03-02T04:15:10.582Z,19.45
2023-03-02T04:17:37.181Z,20.58
2023-03-02T04:20:07.728Z,18.60
2023-03-02T04:22:34.332Z,16.30
2023-03-02T04:25:01.209Z,19.50
2023-03-02T04:27:27.835Z,20.63
2023-03-02T04:29:54.451Z,21.05
2023-03-02T04:32:21.095Z,20.13
2023-03-02T04:34:47.719Z,19.33
2023-03-02T04:37:16.013Z,19.38
2023-03-02T04:39:43.261Z,19.45
2023-03-02T04:42:09.877Z,19.48
2023-03-02T04:44:36.466Z,23.80
2023-03-02T04:47:03.075Z,19.83
2023-03-02T04:49:29.678Z,22.10
2023-03-02T04:51:56.303Z,22.70
2023-03-02T04:54:26.246Z,22.85
2023-03-02T04:56:53.771Z,23.58
2023-03-02T04:59:26.110Z,23.50
2023-03-02T05:01:58.706Z,22.50
2023-03-02T05:04:26.239Z,24.10
2023-03-02T05:06:52.932Z,21.98
2023-03-02T05:09:20.083Z,22.95
2023-03-02T05:11:47.059Z,21.50
2023-03-02T05:14:13.934Z,25.88
2023-03-02T05:16:42.147Z,23.40
2023-03-02T05:19:11.556Z,23.50
2023-03-02T05:21:38.352Z,17.85
2023-03-02T05:24:05.593Z,17.80
2023-03-02T05:26:32.720Z,20.30
2023-03-02T05:28:59.554Z,20.33
2023-03-02T05:31:36.263Z,19.15
2023-03-02T05:34:04.925Z,22.67
2023-03-02T05:36:32.206Z,21.38
2023-03-02T05:38:59.059Z,19.85
2023-03-02T05:41:26.006Z,19.05
2023-03-02T05:43:53.174Z,22.48
2023-03-02T05:46:22.007Z,24.35
2023-03-02T05:48:49.263Z,16.88
2023-03-02T05:51:15.900Z,21.23
2023-03-02T05:53:42.552Z,19.92
2023-03-02T05:56:09.306Z,21.90
2023-03-02T05:58:36.055Z,20.05
2023-03-02T06:01:02.696Z,23.10
2023-03-02T06:03:29.534Z,23.58
2023-03-02T06:05:56.287Z,22.98
2023-03-02T06:08:23.334Z,24.45
2023-03-02T06:10:50.977Z,23.10
2023-03-02T06:13:18.085Z,23.20
2023-03-02T06:15:44.876Z,22.35
2023-03-02T06:18:12.682Z,24.90
2023-03-02T06:20:40.491Z,21.75
2023-03-02T06:23:07.157Z,17.60
2023-03-02T06:25:35.986Z,19.00
2023-03-02T06:28:02.581Z,19.60
2023-03-02T06:30:29.407Z,18.65
2023-03-02T06:32:56.083Z,17.80
2023-03-02T06:35:24.231Z,21.30
2023-03-02T06:37:51.360Z,21.38
2023-03-02T06:40:18.403Z,19.13
2023-03-02T06:42:45.018Z,22.40
2023-03-02T06:45:12.106Z,19.55
2023-03-02T06:47:39.414Z,24.55
2023-03-02T06:50:06.623Z,23.00
2023-03-02T06:52:33.629Z,23.77
2023-03-02T06:55:00.263Z,22.50
2023-03-02T06:57:33.731Z,24.10
2023-03-02T07:00:02.394Z,24.50
2023-03-02T07:02:29.000Z,24.88
2023-03-02T07:04:55.664Z,24.58
2023-03-02T07:07:22.248Z,25.73
2023-03-02T07:09:48.880Z,23.30
2023-03-02T07:12:15.455Z,24.25
2023-03-02T07:14:42.076Z,24.95
2023-03-02T07:17:09.000Z,24.60
2023-03-02T07:19:35.726Z,25.65
2023-03-02T07:22:02.321Z,29.15
2023-03-02T07:24:28.971Z,26.80
2023-03-02T07:26:55.556Z,27.25
2023-03-02T07:29:22.180Z,25.10
2023-03-02T07:31:48.778Z,26.60
2023-03-02T07:34:16.385Z,26.00
2023-03-02T07:36:42.999Z,25.08
2023-03-02T07:39:09.595Z,27.40
2023-03-02T07:41:36.399Z,28.02
2023-03-02T07:44:03.112Z,26.48
2023-03-02T07:46:29.815Z,28.30
2023-03-02T07:48:56.537Z,28.38
2023-03-02T07:51:23.184Z,30.90
2023-03-02T07:53:49.777Z,25.83
2023-03-02T07:56:16.562Z,27.23
2023-03-02T07:58:43.342Z,26.05
2023-03-02T08:01:10.137Z,27.90
2023-03-02T08:03:37.378Z,24.65
2023-03-02T08:06:09.209Z,25.77
2023-03-02T08:08:36.822Z,26.83
2023-03-02T08:11:12.858Z,27.85
2023-03-02T08:13:40.069Z,26.23
2023-03-02T08:16:08.627Z,25.25
2023-03-02T08:18:37.418Z,23.48
2023-03-02T08:21:05.168Z,25.83
2023-03-02T08:23:31.811Z,24.13
2023-03-02T08:25:58.460Z,25.05
2023-03-02T08:28:25.112Z,25.05
2023-03-02T08:30:58.756Z,23.85
2023-03-02T08:33:27.139Z,25.67
2023-03-02T08:35:58.651Z,24.90
2023-03-02T08:38:26.128Z,26.55
2023-03-02T08:40:53.222Z,25.05
2023-03-02T08:43:20.865Z,23.67
2023-03-02T08:45:52.301Z,25.98
2023-03-02T08:48:20.468Z,26.35
2023-03-02T08:51:04.239Z,26.50
2023-03-02T08:53:34.334Z,25.75
2023-03-02T08:56:01.077Z,24.77
2023-03-02T08:58:28.292Z,24.38
2023-03-02T09:00:55.006Z,26.35
2023-03-02T09:03:21.810Z,26.15
2023-03-02T09:05:48.561Z,24.25
2023-03-02T09:08:15.204Z,23.65
2023-03-02T09:10:41.819Z,24.25
2023-03-02T09:13:08.778Z,24.90
2023-03-02T09:15:35.758Z,23.98
2023-03-02T09:18:02.444Z,24.45
2023-03-02T09:20:29.061Z,25.00
2023-03-02T09:22:55.731Z,24.42
2023-03-02T09:25:22.431Z,22.65
2023-03-02T09:27:49.079Z,24.88
2023-03-02T09:30:16.144Z,23.60
2023-03-02T09:32:42.994Z,24.00
2023-03-02T09:35:09.967Z,23.00
2023-03-02T09:37:38.904Z,25.20
2023-03-02T09:40:15.886Z,23.05
2023-03-02T09:42:51.142Z,22.98
2023-03-02T09:45:23.831Z,22.85
2023-03-02T09:48:03.860Z,22.02
2023-03-02T09:50:37.088Z,21.92
2023-03-02T09:55:54.215Z,21.13
2023-03-02T09:58:25.613Z,20.25
2023-03-02T10:00:52.543Z,21.15
2023-03-02T10:03:22.626Z,17.45
2023-03-02T10:05:51.911Z,17.90
2023-03-02T10:08:21.978Z,18.75
2023-03-02T10:11:22.381Z,18.88
2023-03-02T10:14:07.008Z,18.48
2023-03-02T10:16:47.144Z,19.05
2023-03-02T10:19:21.376Z,19.95
2023-03-02T10:21:57.374Z,20.00
2023-03-02T10:24:35.847Z,18.83
2023-03-02T10:27:12.381Z,20.85
2023-03-02T10:29:39.009Z,20.25
2023-03-02T10:32:30.150Z,21.25
2023-03-02T10:34:58.633Z,20.23
2023-03-02T10:37:29.705Z,20.30
2023-03-02T10:39:56.914Z,19.88
2023-03-02T10:42:37.701Z,18.38
2023-03-02T10:45:13.551Z,18.05
2023-03-02T10:47:40.149Z,17.95
2023-03-02T10:50:21.670Z,20.17
2023-03-02T10:52:59.946Z,17.85
2023-03-02T10:55:27.999Z,16.38
2023-03-02T10:58:29.592Z,16.05
2023-03-02T11:01:07.322Z,18.60
2023-03-02T11:03:34.283Z,17.10
2023-03-02T11:06:22.619Z,19.88
2023-03-02T11:09:06.618Z,19.02
2023-03-02T11:11:34.207Z,18.70
2023-03-02T11:14:17.035Z,17.75
2023-03-02T11:16:44.069Z,17.93
2023-03-02T11:19:40.152Z,17.17
2023-03-02T11:22:12.184Z,16.77
2023-03-02T11:24:50.273Z,17.73
2023-03-02T11:27:26.945Z,19.40
2023-03-02T11:30:02.928Z,18.38
2023-03-02T11:32:36.576Z,17.95
2023-03-02T11:35:05.486Z,19.02
2023-03-02T11:37:52.962Z,16.92
2023-03-02T11:40:23.789Z,18.02
2023-03-02T11:42:51.214Z,18.83
2023-03-02T11:45:22.716Z,18.45
2023-03-02T11:48:06.317Z,18.58
2023-03-02T11:50:37.467Z,19.08
2023-03-02T11:53:07.826Z,19.92
2023-03-02T11:55:45.558Z,18.40
2023-03-02T11:58:18.395Z,17.77
2023-03-02T12:00:46.964Z,16.95
2023-03-02T12:03:16.658Z,18.52
2023-03-02T12:05:46.306Z,17.92
2023-03-02T12:08:19.094Z,16.73
2023-03-02T12:11:06.406Z,15.90
2023-03-02T12:13:39.122Z,18.67
2023-03-02T12:16:37.103Z,17.23
2023-03-02T12:19:26.785Z,16.20
2023-03-02T12:22:00.707Z,16.13
2023-03-02T12:24:35.980Z,16.63
2023-03-02T12:27:04.552Z,14.57
2023-03-02T12:29:45.760Z,14.00
2023-03-02T12:32:31.193Z,13.70
2023-03-02T12:35:00.711Z,14.65
2023-03-02T12:37:40.437Z,13.73
2023-03-02T12:40:31.288Z,14.88
2023-03-02T12:43:36.007Z,14.50
2023-03-02T12:46:20.962Z,13.70
2023-03-02T12:48:59.624Z,13.70
2023-03-02T12:51:29.448Z,13.73
2023-03-02T12:54:07.123Z,11.15
2023-03-02T12:56:34.458Z,11.32
2023-03-02T12:59:01.267Z,13.02
2023-03-02T13:01:30.665Z,13.15
2023-03-02T13:03:58.420Z,12.73
2023-03-02T13:06:30.079Z,12.32
2023-03-02T13:08:59.509Z,12.82
2023-03-02T13:11:32.182Z,13.48
2023-03-02T13:14:00.196Z,12.98
2023-03-02T13:16:29.880Z,13.75
2023-03-02T13:18:59.925Z,12.90
2023-03-02T13:21:38.267Z,11.75
2023-03-02T13:24:32.563Z,14.10
2023-03-02T13:27:20.605Z,11.88
2023-03-02T13:29:48.232Z,11.73
2023-03-02T13:32:43.336Z,12.90
2023-03-02T13:35:26.803Z,11.93
2023-03-02T13:38:04.801Z,11.60
2023-03-02T13:40:31.495Z,11.82
2023-03-02T13:42:58.527Z,11.73
2023-03-02T13:45:31.111Z,11.52
2023-03-02T13:48:13.814Z,11.48
2023-03-02T13:50:40.440Z,10.85
2023-03-02T13:53:07.263Z,10.57
2023-03-02T13:55:35.287Z,11.18
2023-03-02T13:58:02.548Z,11.48
2023-03-02T14:00:33.942Z,10.57
2023-03-02T14:03:01.333Z,10.70
2023-03-02T14:05:33.403Z,11.35
2023-03-02T14:08:00.805Z,9.43
2023-03-02T14:10:27.657Z,11.02
2023-03-02T14:12:59.730Z,10.50
2023-03-02T14:15:26.637Z,10.77
2023-03-02T14:17:53.322Z,10.77
2023-03-02T14:20:20.745Z,10.95
2023-03-02T14:22:48.665Z,11.07
2023-03-02T14:25:15.486Z,10.32
2023-03-02T14:27:43.158Z,11.07
2023-03-02T14:30:20.783Z,11.00
2023-03-02T14:32:47.962Z,11.25
2023-03-02T14:35:16.650Z,10.45
2023-03-02T14:37:47.060Z,11.75
2023-03-02T14:40:21.583Z,11.60
2023-03-02T14:42:48.660Z,11.05
2023-03-02T14:45:16.525Z,11.63
2023-03-02T14:47:43.167Z,11.88
2023-03-02T14:50:11.783Z,12.63
2023-03-02T14:52:48.235Z,12.75
2023-03-02T14:55:25.838Z,12.82
2023-03-02T14:57:57.295Z,13.88
2023-03-02T15:00:24.977Z,12.07
2023-03-02T15:02:51.987Z,13.15
2023-03-02T15:05:18.987Z,12.15
2023-03-02T15:07:45.876Z,11.80
2023-03-02T15:10:18.410Z,12.10
2023-03-02T15:12:45.398Z,13.00
2023-03-02T15:15:12.871Z,12.48
2023-03-02T15:17:40.841Z,13.05
2023-03-02T15:20:08.624Z,13.02
2023-03-02T15:22:35.248Z,12.75
2023-03-02T15:25:01.936Z,13.30
2023-03-02T15:27:28.547Z,13.10
2023-03-02T15:29:56.869Z,13.05
2023-03-02T15:32:23.704Z,12.80
2023-03-02T15:34:50.312Z,12.15
2023-03-02T15:37:17.162Z,12.35
2023-03-02T15:39:44.618Z,12.38
2023-03-02T15:42:13.494Z,13.25
2023-03-02T15:44:40.607Z,14.63
2023-03-02T15:47:07.320Z,12.90
2023-03-02T15:49:33.985Z,13.82
2023-03-02T15:52:00.655Z,14.13
2023-03-02T15:54:28.771Z,13.93
2023-03-02T15:56:55.704Z,13.77
2023-03-02T15:59:25.493Z,14.23
2023-03-02T16:01:53.007Z,14.82
2023-03-02T16:04:19.890Z,16.85
2023-03-02T16:06:46.578Z,15.13
2023-03-02T16:09:13.176Z,14.40
2023-03-02T16:11:39.787Z,14.75
2023-03-02T16:14:06.443Z,14.40
2023-03-02T16:16:33.286Z,14.43
2023-03-02T16:19:00.117Z,14.50
2023-03-02T16:21:28.680Z,15.80
2023-03-02T16:24:03.142Z,12.68
2023-03-02T16:26:31.859Z,13.23
2023-03-02T16:28:59.672Z,16.45
2023-03-02T16:31:28.126Z,16.70
2023-03-02T16:33:57.534Z,16.65
2023-03-02T16:36:24.159Z,16.77
2023-03-02T16:38:50.844Z,15.57
2023-03-02T16:41:20.428Z,15.75
2023-03-02T16:43:53.197Z,15.82
2023-03-02T16:46:21.618Z,14.45
2023-03-02T16:48:49.157Z,16.10
2023-03-02T16:51:18.169Z,16.20
2023-03-02T16:53:45.245Z,14.18
2023-03-02T16:56:13.021Z,17.90
2023-03-02T16:58:41.416Z,17.17
2023-03-02T17:01:10.477Z,17.17
2023-03-02T17:03:37.175Z,18.10
2023-03-02T17:06:06.566Z,18.63
2023-03-02T17:08:33.647Z,17.60
2023-03-02T17:11:00.435Z,17.90
2023-03-02T17:13:27.203Z,16.25
2023-03-02T17:15:54.488Z,17.65
2023-03-02T17:18:21.144Z,18.23
2023-03-02T17:20:52.138Z,19.42
2023-03-02T17:23:18.855Z,18.30
2023-03-02T17:25:45.504Z,16.90
2023-03-02T17:28:14.894Z,18.63
2023-03-02T17:30:42.303Z,20.63
2023-03-02T17:33:09.638Z,18.02
2023-03-02T17:35:36.648Z,17.98
2023-03-02T17:38:03.301Z,17.17
2023-03-02T17:40:30.133Z,17.27
2023-03-02T17:42:57.827Z,19.58
2023-03-02T17:45:27.327Z,20.05
2023-03-02T17:47:56.435Z,19.75
2023-03-02T17:50:23.593Z,20.02
2023-03-02T17:52:51.402Z,19.63
2023-03-02T17:55:18.211Z,19.20
2023-03-02T17:57:44.887Z,19.35
2023-03-02T18:00:16.187Z,17.92
2023-03-02T18:02:42.953Z,18.52
2023-03-02T18:05:10.219Z,18.92
2023-03-02T18:07:37.420Z,19.27
2023-03-02T18:10:05.487Z,20.98
2023-03-02T18:12:32.254Z,18.25
2023-03-02T18:14:58.877Z,19.88
2023-03-02T18:17:25.616Z,18.08
2023-03-02T18:19:52.357Z,18.95
2023-03-02T18:22:19.515Z,18.58
2023-03-02T18:24:47.537Z,19.25
2023-03-02T18:27:14.226Z,16.77
2023-03-02T18:29:40.874Z,18.48
2023-03-02T18:32:07.607Z,17.23
2023-03-02T18:34:34.236Z,18.08
2023-03-02T18:37:00.854Z,17.50
2023-03-02T18:39:27.465Z,19.73
2023-03-02T18:41:54.099Z,17.45
2023-03-02T18:44:20.812Z,20.08
2023-03-02T18:46:47.478Z,19.35
2023-03-02T18:49:14.084Z,16.73
2023-03-02T18:51:40.747Z,17.42
2023-03-02T18:54:07.666Z,17.98
2023-03-02T18:56:34.336Z,14.88
2023-03-02T18:59:01.047Z,17.45
2023-03-02T19:01:30.905Z,18.60
2023-03-02T19:03:58.799Z,18.35
2023-03-02T19:06:25.412Z,22.13
2023-03-02T19:08:52.059Z,18.08
2023-03-02T19:11:18.708Z,15.55
2023-03-02T19:13:45.383Z,16.65
2023-03-02T19:16:12.414Z,15.63
2023-03-02T19:18:39.392Z,17.60
2023-03-02T19:21:06.562Z,22.23
2023-03-02T19:23:33.298Z,17.02
2023-03-02T19:26:00.263Z,19.85
2023-03-02T19:28:27.588Z,17.60
2023-03-02T19:30:54.271Z,17.30
2023-03-02T19:33:21.020Z,17.17
2023-03-02T19:35:47.632Z,15.75
2023-03-02T19:38:14.267Z,15.85
2023-03-02T19:40:40.945Z,16.98
2023-03-02T19:43:08.002Z,17.88
2023-03-02T19:45:35.805Z,17.85
2023-03-02T19:48:03.828Z,18.25
2023-03-02T19:50:30.617Z,16.40
2023-03-02T19:52:58.323Z,16.38
2023-03-02T19:55:25.554Z,16.35
2023-03-02T19:57:59.609Z,17.10
2023-03-02T20:00:28.766Z,16.35
2023-03-02T20:02:56.024Z,15.85
2023-03-02T20:05:22.702Z,16.27
2023-03-02T20:07:49.454Z,17.23
2023-03-02T20:10:30.230Z,17.58
2023-03-02T20:12:57.252Z,17.80
2023-03-02T20:15:23.884Z,18.38
2023-03-02T20:17:50.583Z,18.33
2023-03-02T20:20:17.205Z,18.52
2023-03-02T20:22:45.502Z,20.67
2023-03-02T20:25:14.481Z,27.42
2023-03-02T20:27:41.850Z,29.90
2023-03-02T20:30:11.168Z,25.52
2023-03-02T20:32:37.838Z,22.65
2023-03-02T20:35:04.953Z,19.25
2023-03-02T20:37:31.862Z,16.83
2023-03-02T20:39:59.062Z,19.52
2023-03-02T20:42:25.729Z,18.70
2023-03-02T20:44:52.537Z,17.70
2023-03-02T20:47:19.580Z,17.88
2023-03-02T20:49:46.277Z,17.52
2023-03-02T20:52:12.982Z,18.75
2023-03-02T20:54:42.142Z,17.35
2023-03-02T20:57:09.272Z,15.00
2023-03-02T20:59:39.286Z,15.43
2023-03-02T21:02:06.170Z,15.55
2023-03-02T21:04:34.576Z,17.20
2023-03-02T21:07:01.719Z,16.58
2023-03-02T21:09:28.442Z,17.90
2023-03-02T21:11:57.107Z,16.05
2023-03-02T21:14:23.945Z,17.48
2023-03-02T21:16:50.616Z,17.98
2023-03-02T21:19:18.863Z,17.00
2023-03-02T21:21:46.350Z,18.25
2023-03-02T21:24:19.116Z,17.23
2023-03-02T21:26:47.852Z,16.55
2023-03-02T21:29:14.989Z,16.98
2023-03-02T21:31:43.895Z,16.73
2023-03-02T21:34:12.785Z,18.08
2023-03-02T21:36:39.504Z,18.65
2023-03-02T21:39:07.006Z,17.67
2023-03-02T21:41:38.032Z,16.08
2023-03-02T21:44:05.921Z,16.92
2023-03-02T21:46:34.937Z,16.35
2023-03-02T21:49:01.612Z,17.10
2023-03-02T21:51:28.380Z,17.42
2023-03-02T21:53:55.039Z,15.95
2023-03-02T21:56:24.650Z,16.98
2023-03-02T21:58:53.107Z,16.98
2023-03-02T22:01:20.929Z,18.08
2023-03-02T22:03:48.265Z,17.25
2023-03-02T22:06:20.441Z,16.23
2023-03-02T22:08:47.147Z,17.38
2023-03-02T22:11:39.621Z,17.23
2023-03-02T22:14:14.865Z,18.17
2023-03-02T22:16:45.164Z,16.98
2023-03-02T22:19:17.767Z,16.80
2023-03-02T22:21:47.923Z,16.08
2023-03-02T22:24:21.490Z,15.60
2023-03-02T22:26:55.587Z,15.80
2023-03-02T22:29:25.594Z,15.88
2023-03-02T22:31:55.162Z,19.20
2023-03-02T22:34:30.814Z,18.27
2023-03-02T22:37:03.227Z,20.33
2023-03-02T22:39:33.696Z,17.80
2023-03-02T22:42:21.395Z,16.13
2023-03-02T22:45:01.727Z,16.95
2023-03-02T22:47:28.459Z,15.82
2023-03-02T22:50:00.344Z,18.05
2023-03-02T22:52:37.167Z,14.25
2023-03-02T22:55:40.296Z,17.13
2023-03-02T22:58:27.719Z,17.90
2023-03-02T23:00:54.860Z,17.92
2023-03-02T23:03:25.115Z,18.45
2023-03-02T23:05:53.125Z,16.65
2023-03-02T23:08:28.655Z,18.02
2023-03-02T23:10:58.019Z,16.70
2023-03-02T23:13:31.050Z,19.20
2023-03-02T23:15:57.853Z,17.55
2023-03-02T23:18:29.884Z,16.45
2023-03-02T23:20:56.687Z,16.75
2023-03-02T23:23:26.634Z,17.13
2023-03-02T23:25:53.284Z,15.45
2023-03-02T23:28:19.868Z,18.67
2023-03-02T23:30:47.655Z,16.35
2023-03-02T23:33:14.236Z,16.45
2023-03-02T23:35:41.979Z,19.23
2023-03-02T23:38:08.732Z,16.45
2023-03-02T23:40:35.413Z,17.27
2023-03-02T23:43:02.346Z,18.27
2023-03-02T23:45:29.008Z,17.85
2023-03-02T23:47:55.622Z,17.80
2023-03-02T23:50:22.362Z,19.48
2023-03-02T23:52:49.325Z,18.40
2023-03-02T23:55:16.476Z,17.65
2023-03-02T23:57:43.092Z,16.52
